sensor_id;sensor_type;location;lat;lon;timestamp;pressure;altitude;pressure_sealevel;temperature;humidity
19624;BME280;9959;49.798;9.928;2023-06-22T00:01:20;99817.97;;;20.19;100.00
19624;BME280;9959;49.798;9.928;2023-06-22T00:03:49;99820.41;;;20.10;100.00
19624;BME280;9959;49.798;9.928;2023-06-22T00:06:16;99827.78;;;20.05;100.00
19624;BME280;9959;49.798;9.928;2023-06-22T00:08:43;99821.47;;;20.04;100.00
19624;BME280;9959;49.798;9.928;2023-06-22T00:11:10;99816.81;;;19.94;100.00
19624;BME280;9959;49.798;9.928;2023-06-22T00:13:37;99789.47;;;20.05;100.00
19624;BME280;9959;49.798;9.928;2023-06-22T00:16:04;99765.41;;;19.91;100.00
19624;BME280;9959;49.798;9.928;2023-06-22T00:18:31;99757.75;;;20.09;100.00
19624;BME280;9959;49.798;9.928;2023-06-22T00:20:59;99762.97;;;20.15;100.00
19624;BME280;9959;49.798;9.928;2023-06-22T00:23:26;99755.03;;;20.09;100.00
19624;BME280;9959;49.798;9.928;2023-06-22T00:25:53;99742.16;;;19.94;100.00
19624;BME280;9959;49.798;9.928;2023-06-22T00:28:20;99715.38;;;20.11;100.00
19624;BME280;9959;49.798;9.928;2023-06-22T00:30:48;99691.03;;;20.10;100.00
19624;BME280;9959;49.798;9.928;2023-06-22T00:33:16;99672.16;;;20.23;100.00
19624;BME280;9959;49.798;9.928;2023-06-22T00:35:43;99666.41;;;20.35;100.00
19624;BME280;9959;49.798;9.928;2023-06-22T00:38:11;99667.75;;;20.33;100.00
19624;BME280;9959;49.798;9.928;2023-06-22T00:40:38;99670.78;;;20.26;100.00
19624;BME280;9959;49.798;9.928;2023-06-22T00:43:05;99655.47;;;20.50;100.00
19624;BME280;9959;49.798;9.928;2023-06-22T00:45:33;99656.56;;;20.44;100.00
19624;BME280;9959;49.798;9.928;2023-06-22T00:48:00;99654.13;;;20.22;100.00
19624;BME280;9959;49.798;9.928;2023-06-22T00:50:30;99664.22;;;20.32;100.00
19624;BME280;9959;49.798;9.928;2023-06-22T00:53:03;99666.44;;;20.40;100.00
19624;BME280;9959;49.798;9.928;2023-06-22T00:55:38;99657.63;;;20.33;100.00
19624;BME280;9959;49.798;9.928;2023-06-22T00:58:09;99659.56;;;20.33;100.00
19624;BME280;9959;49.798;9.928;2023-06-22T01:00:38;99661.22;;;20.18;100.00
19624;BME280;9959;49.798;9.928;2023-06-22T01:03:06;99654.38;;;20.11;100.00
19624;BME280;9959;49.798;9.928;2023-06-22T01:05:38;99654.66;;;20.09;100.00
19624;BME280;9959;49.798;9.928;2023-06-22T01:08:31;99662.31;;;20.17;100.00
19624;BME280;9959;49.798;9.928;2023-06-22T01:11:10;99661.75;;;20.25;100.00
19624;BME280;9959;49.798;9.928;2023-06-22T01:13:45;99664.78;;;20.09;100.00
19624;BME280;9959;49.798;9.928;2023-06-22T01:16:24;99666.13;;;20.11;100.00
19624;BME280;9959;49.798;9.928;2023-06-22T01:18:53;99666.69;;;20.08;100.00
19624;BME280;9959;49.798;9.928;2023-06-22T01:21:23;99674.63;;;20.05;100.00
19624;BME280;9959;49.798;9.928;2023-06-22T01:24:01;99680.06;;;20.00;100.00
19624;BME280;9959;49.798;9.928;2023-06-22T01:29:41;99700.31;;;20.09;100.00
19624;BME280;9959;49.798;9.928;2023-06-22T01:32:10;99698.69;;;20.13;100.00
19624;BME280;9959;49.798;9.928;2023-06-22T01:34:38;99713.50;;;20.42;100.00
19624;BME280;9959;49.798;9.928;2023-06-22T01:37:07;99719.53;;;20.49;100.00
19624;BME280;9959;49.798;9.928;2023-06-22T01:39:35;99723.84;;;20.35;100.00
19624;BME280;9959;49.798;9.928;2023-06-22T01:42:03;99741.41;;;20.49;100.00
19624;BME280;9959;49.798;9.928;2023-06-22T01:44:31;99746.00;;;20.28;100.00
19624;BME280;9959;49.798;9.928;2023-06-22T01:46:59;99763.53;;;20.12;100.00
19624;BME280;9959;49.798;9.928;2023-06-22T01:49:27;99796.88;;;20.09;100.00
19624;BME280;9959;49.798;9.928;2023-06-22T01:51:54;99838.13;;;19.87;100.00
19624;BME280;9959;49.798;9.928;2023-06-22T01:54:22;99879.91;;;19.78;100.00
19624;BME280;9959;49.798;9.928;2023-06-22T01:56:49;99927.16;;;19.73;100.00
19624;BME280;9959;49.798;9.928;2023-06-22T01:59:29;99957.25;;;19.73;100.00
19624;BME280;9959;49.798;9.928;2023-06-22T02:02:07;99984.66;;;19.83;100.00
19624;BME280;9959;49.798;9.928;2023-06-22T02:04:48;100012.00;;;19.83;100.00
19624;BME280;9959;49.798;9.928;2023-06-22T02:07:18;100027.88;;;19.86;100.00
19624;BME280;9959;49.798;9.928;2023-06-22T02:09:48;100029.22;;;19.84;100.00
19624;BME280;9959;49.798;9.928;2023-06-22T02:12:22;100027.22;;;19.69;100.00
19624;BME280;9959;49.798;9.928;2023-06-22T02:14:51;100024.66;;;19.57;100.00
19624;BME280;9959;49.798;9.928;2023-06-22T02:17:19;100019.31;;;19.41;100.00
19624;BME280;9959;49.798;9.928;2023-06-22T02:19:46;100015.19;;;19.38;100.00
19624;BME280;9959;49.798;9.928;2023-06-22T02:22:12;100005.00;;;19.28;100.00
19624;BME280;9959;49.798;9.928;2023-06-22T02:24:40;99981.28;;;19.34;100.00
19624;BME280;9959;49.798;9.928;2023-06-22T02:27:07;99943.19;;;19.22;100.00
19624;BME280;9959;49.798;9.928;2023-06-22T02:29:34;99910.03;;;19.41;100.00
19624;BME280;9959;49.798;9.928;2023-06-22T02:32:01;99864.06;;;19.33;100.00
19624;BME280;9959;49.798;9.928;2023-06-22T02:34:27;99763.03;;;19.48;100.00
19624;BME280;9959;49.798;9.928;2023-06-22T02:36:54;99627.47;;;19.32;100.00
19624;BME280;9959;49.798;9.928;2023-06-22T02:39:23;99583.50;;;19.33;100.00
19624;BME280;9959;49.798;9.928;2023-06-22T02:41:51;99570.13;;;19.32;100.00
19624;BME280;9959;49.798;9.928;2023-06-22T02:44:19;99588.91;;;19.08;100.00
19624;BME280;9959;49.798;9.928;2023-06-22T02:46:47;99587.56;;;19.10;100.00
19624;BME280;9959;49.798;9.928;2023-06-22T02:49:14;99599.03;;;19.22;100.00
19624;BME280;9959;49.798;9.928;2023-06-22T02:51:50;99586.44;;;19.16;100.00
19624;BME280;9959;49.798;9.928;2023-06-22T02:54:17;99591.66;;;19.13;100.00
19624;BME280;9959;49.798;9.928;2023-06-22T02:56:44;99589.19;;;19.11;100.00
19624;BME280;9959;49.798;9.928;2023-06-22T02:59:11;99593.56;;;19.12;100.00
19624;BME280;9959;49.798;9.928;2023-06-22T03:01:38;99590.28;;;19.15;100.00
19624;BME280;9959;49.798;9.928;2023-06-22T03:04:07;99594.66;;;19.11;100.00
19624;BME280;9959;49.798;9.928;2023-06-22T03:06:35;99597.66;;;19.20;100.00
19624;BME280;9959;49.798;9.928;2023-06-22T03:09:04;99610.28;;;19.31;100.00
19624;BME280;9959;49.798;9.928;2023-06-22T03:11:32;99607.28;;;19.43;100.00
19624;BME280;9959;49.798;9.928;2023-06-22T03:14:02;99620.94;;;19.43;100.00
19624;BME280;9959;49.798;9.928;2023-06-22T03:16:28;99635.75;;;19.57;100.00
19624;BME280;9959;49.798;9.928;2023-06-22T03:18:55;99651.63;;;19.70;100.00
19624;BME280;9959;49.798;9.928;2023-06-22T03:21:23;99665.31;;;19.85;100.00
19624;BME280;9959;49.798;9.928;2023-06-22T03:23:50;99670.75;;;19.75;100.00
19624;BME280;9959;49.798;9.928;2023-06-22T03:26:18;99677.59;;;19.63;100.00
19624;BME280;9959;49.798;9.928;2023-06-22T03:28:45;99685.97;;;19.46;100.00
19624;BME280;9959;49.798;9.928;2023-06-22T03:31:12;99696.44;;;19.64;100.00
19624;BME280;9959;49.798;9.928;2023-06-22T03:33:39;99712.28;;;19.57;100.00
19624;BME280;9959;49.798;9.928;2023-06-22T03:36:06;99703.25;;;19.56;100.00
19624;BME280;9959;49.798;9.928;2023-06-22T03:38:33;99709.56;;;19.62;100.00
19624;BME280;9959;49.798;9.928;2023-06-22T03:40:59;99711.75;;;19.60;100.00
19624;BME280;9959;49.798;9.928;2023-06-22T03:43:26;99711.16;;;19.53;100.00
19624;BME280;9959;49.798;9.928;2023-06-22T03:45:53;99713.56;;;19.44;100.00
19624;BME280;9959;49.798;9.928;2023-06-22T03:48:20;99716.94;;;19.62;100.00
19624;BME280;9959;49.798;9.928;2023-06-22T03:50:47;99707.66;;;19.78;100.00
19624;BME280;9959;49.798;9.928;2023-06-22T03:53:14;99698.09;;;19.80;100.00
19624;BME280;9959;49.798;9.928;2023-06-22T03:55:48;99704.13;;;19.98;100.00
19624;BME280;9959;49.798;9.928;2023-06-22T03:58:17;99706.28;;;19.75;100.00
19624;BME280;9959;49.798;9.928;2023-06-22T04:00:49;99703.31;;;19.82;100.00
19624;BME280;9959;49.798;9.928;2023-06-22T04:03:17;99703.88;;;19.89;100.00
19624;BME280;9959;49.798;9.928;2023-06-22T04:05:47;99705.78;;;19.88;100.00
19624;BME280;9959;49.798;9.928;2023-06-22T04:08:15;99701.94;;;20.00;100.00
19624;BME280;9959;49.798;9.928;2023-06-22T04:10:43;99689.41;;;20.14;100.00
19624;BME280;9959;49.798;9.928;2023-06-22T04:13:10;99688.28;;;20.25;100.00
19624;BME280;9959;49.798;9.928;2023-06-22T04:15:36;99686.63;;;19.99;100.00
19624;BME280;9959;49.798;9.928;2023-06-22T04:18:03;99690.75;;;20.01;100.00
19624;BME280;9959;49.798;9.928;2023-06-22T04:20:31;99681.19;;;19.88;100.00
19624;BME280;9959;49.798;9.928;2023-06-22T04:22:59;99690.47;;;20.08;100.00
19624;BME280;9959;49.798;9.928;2023-06-22T04:25:26;99692.38;;;20.33;100.00
19624;BME280;9959;49.798;9.928;2023-06-22T04:27:53;99686.91;;;20.27;100.00
19624;BME280;9959;49.798;9.928;2023-06-22T04:30:19;99691.84;;;20.05;100.00
19624;BME280;9959;49.798;9.928;2023-06-22T04:32:46;99686.66;;;20.09;100.00
19624;BME280;9959;49.798;9.928;2023-06-22T04:35:26;99692.13;;;20.19;100.00
19624;BME280;9959;49.798;9.928;2023-06-22T04:37:53;99691.84;;;20.31;100.00
19624;BME280;9959;49.798;9.928;2023-06-22T04:40:22;99684.22;;;20.43;100.00
19624;BME280;9959;49.798;9.928;2023-06-22T04:42:49;99691.59;;;20.42;100.00
19624;BME280;9959;49.798;9.928;2023-06-22T04:45:20;99686.41;;;20.20;100.00
19624;BME280;9959;49.798;9.928;2023-06-22T04:47:48;99685.56;;;20.35;100.00
19624;BME280;9959;49.798;9.928;2023-06-22T04:50:15;99681.44;;;20.33;100.00
19624;BME280;9959;49.798;9.928;2023-06-22T04:52:42;99681.75;;;20.21;100.00
19624;BME280;9959;49.798;9.928;2023-06-22T04:55:08;99676.25;;;20.26;100.00
19624;BME280;9959;49.798;9.928;2023-06-22T04:57:35;99683.41;;;20.37;100.00
19624;BME280;9959;49.798;9.928;2023-06-22T05:00:06;99683.09;;;20.54;100.00
19624;BME280;9959;49.798;9.928;2023-06-22T05:02:40;99673.00;;;20.39;100.00
19624;BME280;9959;49.798;9.928;2023-06-22T05:05:08;99681.72;;;20.36;100.00
19624;BME280;9959;49.798;9.928;2023-06-22T05:07:36;99681.47;;;20.22;100.00
19624;BME280;9959;49.798;9.928;2023-06-22T05:10:03;99684.44;;;20.26;100.00
19624;BME280;9959;49.798;9.928;2023-06-22T05:12:30;99688.31;;;20.40;100.00
19624;BME280;9959;49.798;9.928;2023-06-22T05:14:57;99678.41;;;20.65;100.00
19624;BME280;9959;49.798;9.928;2023-06-22T05:17:24;99675.09;;;20.83;100.00
19624;BME280;9959;49.798;9.928;2023-06-22T05:19:52;99677.53;;;20.94;100.00
19624;BME280;9959;49.798;9.928;2023-06-22T05:22:19;99662.53;;;20.67;100.00
19624;BME280;9959;49.798;9.928;2023-06-22T05:24:46;99666.94;;;20.63;100.00
19624;BME280;9959;49.798;9.928;2023-06-22T05:27:13;99666.09;;;20.77;100.00
19624;BME280;9959;49.798;9.928;2023-06-22T05:29:41;99661.16;;;20.74;100.00
19624;BME280;9959;49.798;9.928;2023-06-22T05:32:09;99662.25;;;20.73;100.00
19624;BME280;9959;49.798;9.928;2023-06-22T05:34:36;99658.63;;;20.88;100.00
19624;BME280;9959;49.798;9.928;2023-06-22T05:37:03;99663.16;;;21.28;100.00
19624;BME280;9959;49.798;9.928;2023-06-22T05:39:30;99658.78;;;21.27;100.00
19624;BME280;9959;49.798;9.928;2023-06-22T05:41:57;99648.28;;;21.44;100.00
19624;BME280;9959;49.798;9.928;2023-06-22T05:44:24;99658.97;;;21.41;100.00
19624;BME280;9959;49.798;9.928;2023-06-22T05:46:51;99648.53;;;21.48;100.00
19624;BME280;9959;49.798;9.928;2023-06-22T05:49:17;99658.72;;;21.81;100.00
19624;BME280;9959;49.798;9.928;2023-06-22T05:51:44;99656.44;;;21.93;100.00
19624;BME280;9959;49.798;9.928;2023-06-22T05:54:11;99657.13;;;21.75;100.00
19624;BME280;9959;49.798;9.928;2023-06-22T05:56:40;99667.38;;;22.04;100.00
19624;BME280;9959;49.798;9.928;2023-06-22T05:59:07;99666.84;;;22.02;100.00
19624;BME280;9959;49.798;9.928;2023-06-22T06:01:34;99662.31;;;22.16;100.00
19624;BME280;9959;49.798;9.928;2023-06-22T06:04:03;99664.00;;;22.12;100.00
19624;BME280;9959;49.798;9.928;2023-06-22T06:06:31;99661.63;;;22.34;100.00
19624;BME280;9959;49.798;9.928;2023-06-22T06:08:58;99662.38;;;22.11;100.00
19624;BME280;9959;49.798;9.928;2023-06-22T06:11:26;99652.53;;;22.05;100.00
19624;BME280;9959;49.798;9.928;2023-06-22T06:13:53;99653.13;;;22.02;100.00
19624;BME280;9959;49.798;9.928;2023-06-22T06:16:20;99644.53;;;22.13;100.00
19624;BME280;9959;49.798;9.928;2023-06-22T06:18:47;99646.97;;;22.15;100.00
19624;BME280;9959;49.798;9.928;2023-06-22T06:21:16;99643.63;;;22.47;99.46
19624;BME280;9959;49.798;9.928;2023-06-22T06:23:43;99639.16;;;22.56;98.64
19624;BME280;9959;49.798;9.928;2023-06-22T06:26:10;99626.97;;;22.67;97.97
19624;BME280;9959;49.798;9.928;2023-06-22T06:28:37;99628.34;;;22.65;98.54
19624;BME280;9959;49.798;9.928;2023-06-22T06:31:04;99630.03;;;22.60;99.33
19624;BME280;9959;49.798;9.928;2023-06-22T06:33:34;99617.38;;;22.65;98.91
19624;BME280;9959;49.798;9.928;2023-06-22T06:36:01;99620.16;;;23.07;96.74
19624;BME280;9959;49.798;9.928;2023-06-22T06:38:30;99613.50;;;23.13;95.02
19624;BME280;9959;49.798;9.928;2023-06-22T06:40:58;99618.63;;;23.20;93.70
19624;BME280;9959;49.798;9.928;2023-06-22T06:43:25;99620.50;;;23.24;94.13
19624;BME280;9959;49.798;9.928;2023-06-22T06:45:52;99609.81;;;23.23;94.81
19624;BME280;9959;49.798;9.928;2023-06-22T06:48:19;99603.56;;;23.55;91.85
19624;BME280;9959;49.798;9.928;2023-06-22T06:50:46;99609.34;;;23.91;89.27
19624;BME280;9959;49.798;9.928;2023-06-22T06:53:13;99609.13;;;23.50;90.81
19624;BME280;9959;49.798;9.928;2023-06-22T06:55:40;99614.91;;;23.86;90.01
19624;BME280;9959;49.798;9.928;2023-06-22T06:58:07;99629.63;;;23.95;87.01
19624;BME280;9959;49.798;9.928;2023-06-22T07:00:36;99618.41;;;24.24;85.66
19624;BME280;9959;49.798;9.928;2023-06-22T07:03:04;99614.69;;;24.47;84.07
19624;BME280;9959;49.798;9.928;2023-06-22T07:05:33;99608.84;;;24.35;83.45
19624;BME280;9959;49.798;9.928;2023-06-22T07:07:59;99617.06;;;24.21;84.03
19624;BME280;9959;49.798;9.928;2023-06-22T07:10:26;99611.84;;;24.20;83.78
19624;BME280;9959;49.798;9.928;2023-06-22T07:12:53;99614.50;;;24.57;82.55
19624;BME280;9959;49.798;9.928;2023-06-22T07:15:20;99608.38;;;24.47;82.34
19624;BME280;9959;49.798;9.928;2023-06-22T07:17:47;99616.00;;;24.36;83.52
19624;BME280;9959;49.798;9.928;2023-06-22T07:20:14;99603.25;;;24.40;83.18
19624;BME280;9959;49.798;9.928;2023-06-22T07:22:43;99601.03;;;24.70;81.26
19624;BME280;9959;49.798;9.928;2023-06-22T07:25:11;99613.25;;;24.63;82.04
19624;BME280;9959;49.798;9.928;2023-06-22T07:27:46;99614.91;;;24.92;80.45
19624;BME280;9959;49.798;9.928;2023-06-22T07:30:14;99603.50;;;25.12;78.72
19624;BME280;9959;49.798;9.928;2023-06-22T07:32:41;99602.59;;;25.75;76.41
19624;BME280;9959;49.798;9.928;2023-06-22T07:35:08;99597.63;;;26.08;74.79
19624;BME280;9959;49.798;9.928;2023-06-22T07:37:35;99602.97;;;26.05;75.18
19624;BME280;9959;49.798;9.928;2023-06-22T07:40:02;99592.69;;;26.19;73.53
19624;BME280;9959;49.798;9.928;2023-06-22T07:42:33;99580.88;;;26.05;73.09
19624;BME280;9959;49.798;9.928;2023-06-22T07:45:00;99572.41;;;25.70;73.92
19624;BME280;9959;49.798;9.928;2023-06-22T07:47:28;99582.88;;;26.13;72.23
19624;BME280;9959;49.798;9.928;2023-06-22T07:49:57;99582.72;;;26.40;70.77
19624;BME280;9959;49.798;9.928;2023-06-22T07:52:25;99583.09;;;26.47;70.43
19624;BME280;9959;49.798;9.928;2023-06-22T07:54:54;99582.09;;;26.43;69.58
19624;BME280;9959;49.798;9.928;2023-06-22T07:57:21;99583.97;;;26.65;68.29
19624;BME280;9959;49.798;9.928;2023-06-22T07:59:48;99583.31;;;27.08;66.54
19624;BME280;9959;49.798;9.928;2023-06-22T08:02:15;99569.88;;;26.75;67.92
19624;BME280;9959;49.798;9.928;2023-06-22T08:04:42;99579.06;;;27.10;66.20
19624;BME280;9959;49.798;9.928;2023-06-22T08:07:09;99574.56;;;27.66;64.33
19624;BME280;9959;49.798;9.928;2023-06-22T08:09:37;99568.06;;;27.79;63.46
19624;BME280;9959;49.798;9.928;2023-06-22T08:12:04;99565.25;;;27.36;65.27
19624;BME280;9959;49.798;9.928;2023-06-22T08:14:31;99562.66;;;27.48;64.85
19624;BME280;9959;49.798;9.928;2023-06-22T08:16:58;99556.97;;;27.45;63.85
19624;BME280;9959;49.798;9.928;2023-06-22T08:19:25;99555.53;;;28.37;60.98
19624;BME280;9959;49.798;9.928;2023-06-22T08:21:51;99555.31;;;28.51;59.99
19624;BME280;9959;49.798;9.928;2023-06-22T08:24:18;99545.22;;;28.46;59.72
19624;BME280;9959;49.798;9.928;2023-06-22T08:26:45;99537.31;;;28.66;59.77
19624;BME280;9959;49.798;9.928;2023-06-22T08:29:12;99538.69;;;28.51;60.16
19624;BME280;9959;49.798;9.928;2023-06-22T08:31:39;99543.28;;;27.40;63.91
19624;BME280;9959;49.798;9.928;2023-06-22T08:34:06;99543.47;;;27.69;62.33
19624;BME280;9959;49.798;9.928;2023-06-22T08:36:33;99554.47;;;28.04;61.24
19624;BME280;9959;49.798;9.928;2023-06-22T08:39:04;99548.44;;;28.10;60.30
19624;BME280;9959;49.798;9.928;2023-06-22T08:41:31;99540.78;;;28.54;60.11
19624;BME280;9959;49.798;9.928;2023-06-22T08:43:57;99532.25;;;28.38;60.33
19624;BME280;9959;49.798;9.928;2023-06-22T08:46:24;99519.44;;;28.84;57.98
19624;BME280;9959;49.798;9.928;2023-06-22T08:48:57;99526.13;;;29.54;55.22
19624;BME280;9959;49.798;9.928;2023-06-22T08:51:24;99527.53;;;29.39;54.30
19624;BME280;9959;49.798;9.928;2023-06-22T08:53:51;99537.75;;;29.26;53.03
19624;BME280;9959;49.798;9.928;2023-06-22T08:56:18;99530.03;;;29.11;52.87
19624;BME280;9959;49.798;9.928;2023-06-22T08:58:45;99536.41;;;29.53;51.87
19624;BME280;9959;49.798;9.928;2023-06-22T09:01:12;99535.69;;;29.77;51.39
19624;BME280;9959;49.798;9.928;2023-06-22T09:03:39;99537.13;;;29.95;50.70
19624;BME280;9959;49.798;9.928;2023-06-22T09:06:06;99536.06;;;30.21;49.32
19624;BME280;9959;49.798;9.928;2023-06-22T09:08:36;99533.28;;;29.55;50.57
19624;BME280;9959;49.798;9.928;2023-06-22T09:11:03;99538.84;;;30.45;49.40
19624;BME280;9959;49.798;9.928;2023-06-22T09:13:30;99521.72;;;29.53;51.57
19624;BME280;9959;49.798;9.928;2023-06-22T09:15:58;99527.72;;;29.55;52.74
19624;BME280;9959;49.798;9.928;2023-06-22T09:18:25;99520.16;;;29.43;51.02
19624;BME280;9959;49.798;9.928;2023-06-22T09:20:52;99525.75;;;29.76;49.58
19624;BME280;9959;49.798;9.928;2023-06-22T09:23:19;99530.16;;;29.89;48.84
19624;BME280;9959;49.798;9.928;2023-06-22T09:25:45;99525.66;;;30.30;48.07
19624;BME280;9959;49.798;9.928;2023-06-22T09:28:14;99519.16;;;30.99;46.44
19624;BME280;9959;49.798;9.928;2023-06-22T09:30:43;99522.88;;;30.42;48.02
19624;BME280;9959;49.798;9.928;2023-06-22T09:33:11;99515.59;;;29.92;49.45
19624;BME280;9959;49.798;9.928;2023-06-22T09:35:38;99525.28;;;30.19;49.09
19624;BME280;9959;49.798;9.928;2023-06-22T09:38:05;99527.38;;;30.47;47.96
19624;BME280;9959;49.798;9.928;2023-06-22T09:40:32;99510.34;;;30.24;47.92
19624;BME280;9959;49.798;9.928;2023-06-22T09:43:02;99511.19;;;30.85;46.90
19624;BME280;9959;49.798;9.928;2023-06-22T09:45:29;99516.13;;;31.16;46.35
19624;BME280;9959;49.798;9.928;2023-06-22T09:47:55;99517.34;;;31.59;43.80
19624;BME280;9959;49.798;9.928;2023-06-22T09:50:22;99504.63;;;31.46;43.23
19624;BME280;9959;49.798;9.928;2023-06-22T09:52:49;99502.03;;;30.73;44.91
19624;BME280;9959;49.798;9.928;2023-06-22T09:55:22;99497.97;;;31.90;44.42
19624;BME280;9959;49.798;9.928;2023-06-22T09:57:49;99503.25;;;31.00;46.29
19624;BME280;9959;49.798;9.928;2023-06-22T10:00:16;99499.28;;;31.25;46.18
19624;BME280;9959;49.798;9.928;2023-06-22T10:02:44;99500.91;;;31.54;44.69
19624;BME280;9959;49.798;9.928;2023-06-22T10:05:11;99482.06;;;31.91;43.89
19624;BME280;9959;49.798;9.928;2023-06-22T10:07:39;99495.44;;;31.57;43.83
19624;BME280;9959;49.798;9.928;2023-06-22T10:10:12;99491.50;;;32.18;42.57
19624;BME280;9959;49.798;9.928;2023-06-22T10:12:43;99486.75;;;32.18;41.21
19624;BME280;9959;49.798;9.928;2023-06-22T10:15:10;99494.38;;;32.06;42.07
19624;BME280;9959;49.798;9.928;2023-06-22T10:17:38;99486.19;;;31.97;40.69
19624;BME280;9959;49.798;9.928;2023-06-22T10:20:06;99476.00;;;32.68;41.00
19624;BME280;9959;49.798;9.928;2023-06-22T10:22:39;99472.22;;;32.76;40.94
19624;BME280;9959;49.798;9.928;2023-06-22T10:25:07;99479.09;;;32.47;41.73
19624;BME280;9959;49.798;9.928;2023-06-22T10:27:34;99468.63;;;32.75;41.42
19624;BME280;9959;49.798;9.928;2023-06-22T10:30:01;99471.72;;;32.54;41.35
19624;BME280;9959;49.798;9.928;2023-06-22T10:32:28;99458.97;;;32.73;40.02
19624;BME280;9959;49.798;9.928;2023-06-22T10:34:55;99463.03;;;32.24;41.12
19624;BME280;9959;49.798;9.928;2023-06-22T10:37:24;99464.94;;;31.49;41.81
19624;BME280;9959;49.798;9.928;2023-06-22T10:39:51;99466.78;;;32.48;40.14
19624;BME280;9959;49.798;9.928;2023-06-22T10:42:18;99468.41;;;32.49;40.13
19624;BME280;9959;49.798;9.928;2023-06-22T10:44:45;99457.09;;;32.26;40.80
19624;BME280;9959;49.798;9.928;2023-06-22T10:47:12;99460.00;;;31.70;41.45
19624;BME280;9959;49.798;9.928;2023-06-22T10:49:39;99447.59;;;31.83;41.90
19624;BME280;9959;49.798;9.928;2023-06-22T10:52:08;99444.84;;;32.30;40.80
19624;BME280;9959;49.798;9.928;2023-06-22T10:54:36;99440.66;;;32.91;39.74
19624;BME280;9959;49.798;9.928;2023-06-22T10:57:03;99440.59;;;31.46;42.76
19624;BME280;9959;49.798;9.928;2023-06-22T10:59:30;99432.50;;;32.47;40.73
19624;BME280;9959;49.798;9.928;2023-06-22T11:01:57;99432.88;;;32.30;40.68
19624;BME280;9959;49.798;9.928;2023-06-22T11:04:24;99429.72;;;31.69;41.75
19624;BME280;9959;49.798;9.928;2023-06-22T11:06:51;99432.97;;;31.43;42.08
19624;BME280;9959;49.798;9.928;2023-06-22T11:09:18;99420.75;;;32.57;40.62
19624;BME280;9959;49.798;9.928;2023-06-22T11:11:53;99421.34;;;32.47;40.24
19624;BME280;9959;49.798;9.928;2023-06-22T11:14:20;99413.19;;;33.12;38.60
19624;BME280;9959;49.798;9.928;2023-06-22T11:16:48;99405.88;;;33.04;38.99
19624;BME280;9959;49.798;9.928;2023-06-22T11:19:15;99404.75;;;32.89;38.94
19624;BME280;9959;49.798;9.928;2023-06-22T11:21:43;99409.09;;;34.36;36.99
19624;BME280;9959;49.798;9.928;2023-06-22T11:24:10;99401.88;;;33.67;37.59
19624;BME280;9959;49.798;9.928;2023-06-22T11:26:37;99402.53;;;34.28;37.08
19624;BME280;9959;49.798;9.928;2023-06-22T11:29:04;99399.91;;;34.13;36.59
19624;BME280;9959;49.798;9.928;2023-06-22T11:31:32;99398.34;;;33.70;37.23
19624;BME280;9959;49.798;9.928;2023-06-22T11:33:59;99384.56;;;34.82;35.61
19624;BME280;9959;49.798;9.928;2023-06-22T11:36:26;99380.06;;;34.21;36.00
19624;BME280;9959;49.798;9.928;2023-06-22T11:38:53;99364.13;;;33.76;37.22
19624;BME280;9959;49.798;9.928;2023-06-22T11:41:21;99357.81;;;33.34;37.73
19624;BME280;9959;49.798;9.928;2023-06-22T11:43:49;99355.69;;;33.50;37.64
19624;BME280;9959;49.798;9.928;2023-06-22T11:46:16;99359.22;;;34.72;35.76
19624;BME280;9959;49.798;9.928;2023-06-22T11:48:42;99340.63;;;34.56;36.31
19624;BME280;9959;49.798;9.928;2023-06-22T11:51:09;99340.28;;;35.25;34.78
19624;BME280;9959;49.798;9.928;2023-06-22T11:53:37;99348.13;;;34.79;35.65
19624;BME280;9959;49.798;9.928;2023-06-22T11:56:03;99333.97;;;35.35;34.40
19624;BME280;9959;49.798;9.928;2023-06-22T11:58:30;99332.28;;;34.90;34.74
19624;BME280;9959;49.798;9.928;2023-06-22T12:00:57;99333.44;;;34.85;35.32
19624;BME280;9959;49.798;9.928;2023-06-22T12:03:24;99319.97;;;35.35;34.78
19624;BME280;9959;49.798;9.928;2023-06-22T12:05:51;99314.88;;;34.74;35.04
19624;BME280;9959;49.798;9.928;2023-06-22T12:08:19;99310.59;;;35.61;33.86
19624;BME280;9959;49.798;9.928;2023-06-22T12:10:46;99313.16;;;35.33;34.23
19624;BME280;9959;49.798;9.928;2023-06-22T12:13:13;99311.38;;;34.50;35.60
19624;BME280;9959;49.798;9.928;2023-06-22T12:15:39;99311.19;;;34.36;35.98
19624;BME280;9959;49.798;9.928;2023-06-22T12:18:06;99302.31;;;34.60;35.78
19624;BME280;9959;49.798;9.928;2023-06-22T12:20:35;99298.59;;;34.83;35.01
19624;BME280;9959;49.798;9.928;2023-06-22T12:23:02;99287.91;;;34.58;34.90
19624;BME280;9959;49.798;9.928;2023-06-22T12:25:29;99292.16;;;35.16;34.78
19624;BME280;9959;49.798;9.928;2023-06-22T12:27:55;99288.41;;;35.82;33.53
19624;BME280;9959;49.798;9.928;2023-06-22T12:30:22;99282.41;;;35.40;34.21
19624;BME280;9959;49.798;9.928;2023-06-22T12:32:49;99285.47;;;33.74;36.02
19624;BME280;9959;49.798;9.928;2023-06-22T12:35:20;99274.88;;;34.40;35.24
19624;BME280;9959;49.798;9.928;2023-06-22T12:37:47;99284.09;;;34.77;34.92
19624;BME280;9959;49.798;9.928;2023-06-22T12:40:14;99286.59;;;35.63;33.72
19624;BME280;9959;49.798;9.928;2023-06-22T12:42:41;99280.09;;;35.49;33.45
19624;BME280;9959;49.798;9.928;2023-06-22T12:45:09;99289.88;;;34.88;35.08
19624;BME280;9959;49.798;9.928;2023-06-22T12:47:36;99282.69;;;34.90;35.21
19624;BME280;9959;49.798;9.928;2023-06-22T12:50:03;99292.63;;;34.54;36.61
19624;BME280;9959;49.798;9.928;2023-06-22T12:52:31;99296.53;;;33.44;37.87
19624;BME280;9959;49.798;9.928;2023-06-22T12:55:00;99294.44;;;33.83;37.36
19624;BME280;9959;49.798;9.928;2023-06-22T12:57:27;99291.78;;;33.03;38.45
19624;BME280;9959;49.798;9.928;2023-06-22T12:59:54;99289.66;;;32.96;39.17
19624;BME280;9959;49.798;9.928;2023-06-22T13:02:21;99290.84;;;32.95;38.88
19624;BME280;9959;49.798;9.928;2023-06-22T13:04:48;99291.28;;;32.04;40.59
19624;BME280;9959;49.798;9.928;2023-06-22T13:07:15;99280.44;;;32.53;39.92
19624;BME280;9959;49.798;9.928;2023-06-22T13:09:50;99266.63;;;32.60;39.76
19624;BME280;9959;49.798;9.928;2023-06-22T13:12:20;99264.56;;;32.57;40.30